Time;durP1;ratioP1;P1;durP2;ratioP2;P2;SDS_P1;SDS_P2;PMS_P1;PMS_P2;Temp;Humidity;BMP_temperature;BMP_pressure;BME280_temperature;BME280_humidity;BME280_pressure;Samples;Min_cycle;Max_cycle;Signal;HPM_P1;HPM_P2
2021/08/08 00:00:22;;;;;;;5.47;2.40;;;15.90;99.90;;;;;;5087097;28;20228;-83
2021/08/08 00:02:47;;;;;;;3.50;2.87;;;15.80;99.90;;;;;;5087152;28;20163;-83
2021/08/08 00:05:13;;;;;;;4.80;2.47;;;15.80;99.90;;;;;;5085699;28;20265;-82
2021/08/08 00:07:38;;;;;;;2.03;1.83;;;15.80;99.90;;;;;;5068599;28;20185;-84
2021/08/08 00:10:07;;;;;;;4.80;2.30;;;15.70;99.90;;;;;;5051149;28;20215;-83
2021/08/08 00:12:33;;;;;;;2.10;1.90;;;15.70;99.90;;;;;;5086352;28;20242;-82
2021/08/08 00:14:58;;;;;;;2.23;2.00;;;15.80;99.90;;;;;;5086033;28;20400;-84
2021/08/08 00:17:24;;;;;;;2.87;2.67;;;15.80;99.90;;;;;;5086681;28;20393;-83
2021/08/08 00:19:49;;;;;;;1.87;1.67;;;15.90;99.90;;;;;;5086743;28;20280;-84
2021/08/08 00:22:15;;;;;;;2.23;2.03;;;15.90;99.90;;;;;;5087008;28;20174;-83
2021/08/08 00:24:41;;;;;;;3.70;2.10;;;15.90;99.90;;;;;;5086439;28;20183;-84
2021/08/08 00:27:06;;;;;;;2.30;2.10;;;15.90;99.90;;;;;;5086282;28;20473;-84
2021/08/08 00:29:32;;;;;;;3.07;2.07;;;15.80;99.90;;;;;;5086206;28;20183;-83
2021/08/08 00:31:58;;;;;;;2.73;2.50;;;15.80;99.90;;;;;;5086478;28;20190;-84
2021/08/08 00:34:23;;;;;;;1.70;1.60;;;15.80;99.90;;;;;;5086943;28;20185;-83
2021/08/08 00:36:49;;;;;;;5.00;2.20;;;15.80;99.90;;;;;;5069681;28;20166;-83
2021/08/08 00:39:16;;;;;;;2.57;2.27;;;15.90;99.90;;;;;;5069447;28;20174;-83
2021/08/08 00:41:42;;;;;;;2.57;2.37;;;15.90;99.90;;;;;;5069356;28;20418;-83
2021/08/08 00:44:07;;;;;;;3.47;2.30;;;15.90;99.90;;;;;;5086825;28;20386;-83
2021/08/08 00:46:33;;;;;;;3.13;2.37;;;15.90;99.90;;;;;;5087184;28;20159;-83
2021/08/08 00:48:59;;;;;;;2.90;2.50;;;15.90;99.90;;;;;;5087107;28;20191;-83
2021/08/08 00:51:27;;;;;;;4.97;2.27;;;16.00;99.90;;;;;;5088955;28;20174;-82
2021/08/08 00:53:53;;;;;;;3.60;2.90;;;16.00;99.90;;;;;;5087153;28;20397;-83
2021/08/08 00:56:18;;;;;;;6.27;2.13;;;15.90;99.90;;;;;;5087044;28;20405;-83
2021/08/08 00:58:44;;;;;;;2.20;2.00;;;16.00;99.90;;;;;;5069314;28;20197;-83
2021/08/08 01:01:12;;;;;;;5.70;2.10;;;15.80;99.90;;;;;;5087132;28;20167;-81
2021/08/08 01:03:40;;;;;;;3.20;2.90;;;15.80;99.90;;;;;;5095494;28;20164;-81
2021/08/08 01:06:24;;;;;;;4.00;2.70;;;15.70;99.90;;;;;;5074453;28;20422;-83
2021/08/08 01:08:53;;;;;;;1.90;1.80;;;15.70;99.90;;;;;;5088108;28;20502;-83
2021/08/08 01:11:22;;;;;;;3.67;2.20;;;15.60;99.90;;;;;;5087517;28;20445;-83
2021/08/08 01:13:48;;;;;;;5.00;1.70;;;15.70;99.90;;;;;;5068862;28;20429;-84
2021/08/08 01:16:16;;;;;;;3.90;2.60;;;15.70;99.90;;;;;;5068108;28;20383;-84
2021/08/08 01:18:43;;;;;;;11.00;2.93;;;15.70;99.90;;;;;;5085492;28;20389;-82
2021/08/08 01:21:09;;;;;;;2.20;2.00;;;15.60;99.90;;;;;;5087428;28;20560;-84
2021/08/08 01:23:36;;;;;;;2.30;1.93;;;15.60;99.90;;;;;;5088225;28;20727;-84
2021/08/08 01:26:02;;;;;;;2.80;2.20;;;15.60;99.90;;;;;;5090402;28;20164;-84
2021/08/08 01:28:28;;;;;;;2.00;1.73;;;15.50;99.90;;;;;;5092371;28;20487;-83
2021/08/08 01:30:53;;;;;;;6.00;1.77;;;15.50;99.90;;;;;;5098166;28;20394;-81
2021/08/08 01:33:19;;;;;;;2.03;1.93;;;15.50;99.90;;;;;;5096263;28;20235;-83
2021/08/08 01:35:45;;;;;;;3.27;2.57;;;15.60;99.90;;;;;;5097799;28;20227;-82
2021/08/08 01:38:11;;;;;;;2.93;2.73;;;15.60;99.90;;;;;;5099020;28;20215;-82
2021/08/08 01:40:52;;;;;;;4.80;1.73;;;15.60;99.90;;;;;;5064291;28;20405;-82
2021/08/08 01:43:25;;;;;;;1.83;1.73;;;15.60;99.90;;;;;;5099368;28;20159;-81
2021/08/08 01:45:53;;;;;;;3.87;2.27;;;15.70;99.90;;;;;;5099530;28;20386;-81
2021/08/08 01:48:21;;;;;;;2.50;2.30;;;15.70;99.90;;;;;;5099598;28;20437;-81
2021/08/08 01:50:47;;;;;;;2.23;1.70;;;15.60;99.90;;;;;;5091632;28;20391;-84
2021/08/08 01:53:13;;;;;;;2.13;1.80;;;15.60;99.90;;;;;;5090636;28;20386;-84
2021/08/08 01:55:38;;;;;;;3.90;1.77;;;15.50;99.90;;;;;;5090003;28;20163;-83
2021/08/08 01:58:05;;;;;;;4.20;1.53;;;15.50;99.90;;;;;;5072441;28;20187;-84
2021/08/08 02:00:31;;;;;;;6.00;2.00;;;15.50;99.90;;;;;;5090055;28;20160;-84
2021/08/08 02:02:58;;;;;;;5.43;2.10;;;15.30;99.90;;;;;;5090895;28;20390;-84
2021/08/08 02:05:26;;;;;;;1.80;1.70;;;15.30;99.90;;;;;;5073617;28;20454;-83
2021/08/08 02:07:52;;;;;;;3.23;1.87;;;15.30;99.90;;;;;;5091966;28;20444;-84
2021/08/08 02:10:17;;;;;;;2.90;2.33;;;15.30;99.90;;;;;;5092402;28;20866;-84
2021/08/08 02:12:44;;;;;;;6.00;2.40;;;15.30;99.90;;;;;;5093606;28;20163;-83
2021/08/08 02:15:10;;;;;;;2.80;2.07;;;15.30;99.90;;;;;;5089500;28;20160;-83
2021/08/08 02:17:37;;;;;;;2.10;1.77;;;15.30;99.90;;;;;;5089916;28;20413;-82
2021/08/08 02:20:05;;;;;;;2.63;1.50;;;15.30;99.90;;;;;;5089970;28;20477;-84
2021/08/08 02:22:30;;;;;;;2.07;1.47;;;15.30;99.90;;;;;;5089989;28;20397;-84
2021/08/08 02:24:55;;;;;;;1.73;1.63;;;15.30;99.90;;;;;;5089605;28;20390;-82
2021/08/08 02:27:21;;;;;;;2.20;2.00;;;15.20;99.90;;;;;;5090041;28;20167;-84
2021/08/08 02:29:46;;;;;;;2.77;2.57;;;15.20;99.90;;;;;;5071775;28;20281;-83
2021/08/08 02:32:15;;;;;;;4.93;2.03;;;15.10;99.90;;;;;;5089989;28;20180;-83
2021/08/08 02:34:40;;;;;;;4.00;2.10;;;15.20;99.90;;;;;;5090129;28;20148;-83
2021/08/08 02:37:06;;;;;;;2.17;1.60;;;15.20;99.90;;;;;;5089615;28;20409;-83
2021/08/08 02:39:31;;;;;;;11.10;2.20;;;15.20;99.90;;;;;;5090105;28;20171;-84
2021/08/08 02:41:57;;;;;;;2.13;1.93;;;15.20;99.90;;;;;;5089694;28;20217;-84
2021/08/08 02:44:22;;;;;;;3.77;1.60;;;15.10;99.90;;;;;;5089042;28;20163;-83
2021/08/08 02:46:48;;;;;;;1.87;1.77;;;15.20;99.90;;;;;;5089367;28;20170;-83
2021/08/08 02:49:14;;;;;;;4.13;2.37;;;15.20;99.90;;;;;;5088392;28;20422;-83
2021/08/08 02:51:39;;;;;;;1.93;1.73;;;15.10;99.90;;;;;;5089156;28;20219;-84
2021/08/08 02:54:05;;;;;;;2.13;1.80;;;15.10;99.90;;;;;;5071765;28;20164;-84
2021/08/08 02:56:30;;;;;;;1.60;1.50;;;15.10;99.90;;;;;;5088233;28;20593;-83
2021/08/08 02:58:56;;;;;;;2.67;1.87;;;15.20;99.90;;;;;;5088106;28;20174;-83
2021/08/08 03:01:21;;;;;;;2.80;2.00;;;15.10;99.90;;;;;;5088168;28;20167;-83
2021/08/08 03:03:47;;;;;;;4.80;2.00;;;15.10;99.90;;;;;;5088533;28;20167;-82
2021/08/08 03:06:13;;;;;;;3.77;1.73;;;15.00;99.90;;;;;;5070273;28;20593;-83
2021/08/08 03:08:40;;;;;;;1.70;1.60;;;15.00;99.90;;;;;;5088275;28;20203;-83
2021/08/08 03:11:06;;;;;;;4.77;1.90;;;15.00;99.90;;;;;;5088830;28;20398;-83
2021/08/08 03:13:31;;;;;;;2.80;1.90;;;15.00;99.90;;;;;;5087907;28;20386;-82
2021/08/08 03:15:57;;;;;;;4.37;2.10;;;15.00;99.90;;;;;;5087163;28;20221;-83
2021/08/08 03:18:22;;;;;;;2.30;2.10;;;15.00;99.90;;;;;;5087352;28;20168;-83
2021/08/08 03:20:48;;;;;;;4.37;2.80;;;15.10;99.90;;;;;;5087682;28;20227;-83
2021/08/08 03:23:13;;;;;;;5.23;2.50;;;15.20;99.90;;;;;;5070279;28;20167;-83
2021/08/08 03:25:39;;;;;;;4.67;1.80;;;15.20;99.90;;;;;;5070294;28;20167;-83
2021/08/08 03:28:04;;;;;;;3.77;1.97;;;15.30;99.90;;;;;;5087452;28;20244;-83
2021/08/08 03:30:30;;;;;;;2.90;2.00;;;15.20;99.90;;;;;;5068822;28;20219;-83
2021/08/08 03:32:55;;;;;;;13.33;2.20;;;15.10;99.90;;;;;;5087472;28;20225;-83
2021/08/08 03:35:21;;;;;;;2.00;1.60;;;15.10;99.90;;;;;;5087668;28;20160;-81
2021/08/08 03:37:46;;;;;;;1.70;1.60;;;15.20;99.90;;;;;;5090271;28;20159;-83
2021/08/08 03:40:12;;;;;;;1.70;1.60;;;15.10;99.90;;;;;;5090050;28;20174;-83
2021/08/08 03:42:38;;;;;;;4.47;1.80;;;15.20;99.90;;;;;;5071913;28;20156;-82
2021/08/08 03:45:04;;;;;;;2.03;1.83;;;15.40;99.90;;;;;;5088299;28;20424;-83
2021/08/08 03:47:33;;;;;;;2.03;1.40;;;15.10;99.90;;;;;;5087884;28;20163;-83
2021/08/08 03:49:58;;;;;;;2.27;1.90;;;15.10;99.90;;;;;;5087977;28;20539;-83
2021/08/08 03:52:24;;;;;;;10.17;2.10;;;15.10;99.90;;;;;;5087898;28;20781;-83
2021/08/08 03:54:49;;;;;;;2.33;1.93;;;15.20;99.90;;;;;;5087846;28;20653;-83
2021/08/08 03:57:15;;;;;;;4.03;1.97;;;15.30;99.90;;;;;;5087924;28;20238;-83
2021/08/08 03:59:40;;;;;;;5.43;1.93;;;15.40;99.90;;;;;;5087606;28;20159;-83
2021/08/08 04:02:06;;;;;;;1.73;1.63;;;15.30;99.90;;;;;;5087619;28;20254;-83
2021/08/08 04:04:31;;;;;;;9.60;2.53;;;15.30;99.90;;;;;;5087756;28;20164;-84
2021/08/08 04:06:57;;;;;;;4.00;1.50;;;15.40;99.90;;;;;;5087892;28;20170;-83
2021/08/08 04:09:22;;;;;;;1.80;1.70;;;15.30;99.90;;;;;;5087198;28;20207;-82
2021/08/08 04:11:48;;;;;;;1.80;1.70;;;15.40;99.90;;;;;;5069658;28;20160;-83
2021/08/08 04:14:14;;;;;;;2.40;2.23;;;15.40;99.90;;;;;;5087939;28;20232;-85
2021/08/08 04:16:39;;;;;;;2.43;1.73;;;15.40;99.90;;;;;;5089031;28;20246;-82
2021/08/08 04:19:05;;;;;;;3.87;2.23;;;15.40;99.90;;;;;;5088300;28;20412;-82
2021/08/08 04:21:30;;;;;;;1.60;1.50;;;15.40;99.90;;;;;;5087879;28;20230;-84
2021/08/08 04:23:56;;;;;;;1.50;1.40;;;15.40;99.90;;;;;;5086903;28;20170;-84
2021/08/08 04:26:21;;;;;;;5.60;2.13;;;15.40;99.90;;;;;;5087292;28;20168;-84
2021/08/08 04:28:47;;;;;;;1.60;1.50;;;15.50;99.90;;;;;;5087608;28;20308;-83
2021/08/08 04:31:12;;;;;;;4.63;2.00;;;15.60;99.90;;;;;;5087814;28;20156;-84
2021/08/08 04:33:38;;;;;;;4.80;2.13;;;15.50;99.90;;;;;;5087305;28;20160;-84
2021/08/08 04:36:04;;;;;;;6.27;2.10;;;15.50;99.90;;;;;;5087365;28;20193;-83
2021/08/08 04:38:30;;;;;;;1.87;1.77;;;15.40;99.90;;;;;;5087602;28;20189;-83
2021/08/08 04:40:56;;;;;;;2.90;1.90;;;15.40;99.90;;;;;;5087565;28;20867;-83
2021/08/08 04:43:22;;;;;;;2.53;1.77;;;15.50;99.90;;;;;;5088668;28;20440;-83
2021/08/08 04:45:47;;;;;;;1.57;1.47;;;15.50;99.90;;;;;;5094831;28;20190;-83
2021/08/08 04:48:13;;;;;;;3.30;2.37;;;15.50;99.90;;;;;;5073921;28;20217;-84
2021/08/08 04:50:38;;;;;;;1.60;1.47;;;15.60;99.90;;;;;;5087645;28;20185;-84
2021/08/08 04:53:04;;;;;;;6.30;1.93;;;15.50;99.90;;;;;;5088507;28;20189;-84
2021/08/08 04:55:29;;;;;;;1.97;1.73;;;15.50;99.90;;;;;;5091540;28;20246;-84
2021/08/08 04:57:55;;;;;;;1.97;1.87;;;15.50;99.90;;;;;;5091743;28;20515;-84
2021/08/08 05:00:20;;;;;;;1.93;1.53;;;15.50;99.90;;;;;;5092074;28;20163;-83
2021/08/08 05:02:48;;;;;;;3.37;1.83;;;15.50;99.90;;;;;;5098125;28;20650;-83
2021/08/08 05:05:14;;;;;;;5.23;2.17;;;15.40;99.90;;;;;;5076314;28;20156;-84
2021/08/08 05:07:41;;;;;;;3.00;1.73;;;15.40;99.90;;;;;;5099012;28;20389;-84
2021/08/08 05:10:10;;;;;;;2.87;2.20;;;15.30;99.90;;;;;;5099421;28;20460;-83
2021/08/08 05:12:36;;;;;;;1.90;1.77;;;15.50;99.90;;;;;;5082801;28;20770;-81
2021/08/08 05:15:03;;;;;;;5.27;1.70;;;15.50;99.90;;;;;;5100194;28;20405;-81
2021/08/08 05:17:28;;;;;;;2.60;1.50;;;15.40;99.90;;;;;;5067053;28;20394;-80
2021/08/08 05:19:54;;;;;;;1.90;1.80;;;15.50;99.90;;;;;;5098904;28;20449;-84
2021/08/08 05:22:19;;;;;;;2.40;1.77;;;15.60;99.90;;;;;;5093202;28;20156;-83
2021/08/08 05:24:45;;;;;;;2.00;1.80;;;15.80;99.90;;;;;;5090629;28;20170;-84
2021/08/08 05:27:10;;;;;;;2.10;1.80;;;15.80;99.90;;;;;;5089628;28;20620;-84
2021/08/08 05:29:36;;;;;;;2.10;2.00;;;15.90;99.90;;;;;;5089191;28;20203;-83
2021/08/08 05:32:02;;;;;;;3.00;2.70;;;15.80;99.90;;;;;;5071227;28;20519;-84
2021/08/08 05:34:27;;;;;;;4.40;2.13;;;16.00;99.90;;;;;;5089858;28;20223;-83
2021/08/08 05:36:53;;;;;;;4.73;1.80;;;16.10;99.90;;;;;;5090391;28;20160;-83
2021/08/08 05:39:18;;;;;;;2.50;1.90;;;16.20;99.90;;;;;;5059226;28;20174;-84
2021/08/08 05:41:44;;;;;;;2.00;1.90;;;16.20;99.90;;;;;;5092044;28;20235;-84
2021/08/08 05:44:09;;;;;;;2.23;1.60;;;16.10;99.90;;;;;;5091946;28;20234;-84
2021/08/08 05:46:35;;;;;;;3.57;1.97;;;16.00;99.90;;;;;;5090116;28;20178;-84
2021/08/08 05:49:01;;;;;;;2.90;1.63;;;16.20;99.90;;;;;;5089061;28;20267;-84
2021/08/08 05:51:26;;;;;;;3.57;1.80;;;16.20;99.90;;;;;;5089321;28;20443;-84
2021/08/08 05:53:52;;;;;;;2.07;1.87;;;16.30;99.90;;;;;;5089787;28;20163;-84
2021/08/08 05:56:17;;;;;;;2.00;1.80;;;16.40;99.90;;;;;;5090598;28;20163;-84
2021/08/08 05:58:43;;;;;;;2.03;1.70;;;16.30;99.90;;;;;;5090676;28;20210;-84
2021/08/08 06:01:08;;;;;;;2.43;2.17;;;16.20;99.90;;;;;;5090275;28;20159;-84
2021/08/08 06:03:34;;;;;;;2.00;1.73;;;16.30;99.90;;;;;;5089435;28;20164;-83
2021/08/08 06:05:59;;;;;;;3.90;1.90;;;16.20;99.90;;;;;;5088821;28;20294;-83
2021/08/08 06:08:25;;;;;;;3.30;1.90;;;16.40;99.90;;;;;;5090078;28;20218;-84
2021/08/08 06:10:51;;;;;;;3.77;2.23;;;16.30;99.90;;;;;;5089521;28;20164;-82
2021/08/08 06:13:16;;;;;;;2.25;1.60;;;16.40;99.90;;;;;;5089132;28;20889;-84
2021/08/08 06:15:42;;;;;;;2.87;2.23;;;16.40;99.90;;;;;;5071656;28;20155;-83
2021/08/08 06:18:09;;;;;;;1.50;1.40;;;16.60;99.90;;;;;;5093804;28;20155;-83
2021/08/08 06:20:34;;;;;;;2.70;1.77;;;16.20;99.90;;;;;;5093144;28;20229;-83
2021/08/08 06:23:00;;;;;;;1.80;1.70;;;16.50;99.90;;;;;;5074957;28;20453;-83
2021/08/08 06:25:25;;;;;;;3.30;2.07;;;16.60;99.90;;;;;;5076250;28;20155;-83
2021/08/08 06:27:50;;;;;;;2.27;1.93;;;16.50;99.90;;;;;;5096641;28;20160;-83
2021/08/08 06:30:16;;;;;;;4.30;2.23;;;16.80;99.90;;;;;;5078330;28;20187;-83
2021/08/08 06:32:42;;;;;;;2.43;2.10;;;16.90;99.90;;;;;;5079088;28;20217;-82
2021/08/08 06:35:08;;;;;;;2.23;1.63;;;16.80;99.90;;;;;;5078226;28;20186;-80
2021/08/08 06:37:33;;;;;;;1.77;1.67;;;16.80;99.90;;;;;;5092694;28;20235;-84
2021/08/08 06:39:59;;;;;;;6.50;1.60;;;16.90;99.90;;;;;;5089818;28;20397;-83
2021/08/08 06:42:24;;;;;;;1.87;1.77;;;17.00;99.90;;;;;;5071940;28;20159;-82
2021/08/08 06:44:50;;;;;;;3.30;2.00;;;17.10;99.90;;;;;;5089412;28;20163;-84
2021/08/08 06:47:16;;;;;;;3.37;1.70;;;17.00;99.90;;;;;;5089336;28;20172;-84
2021/08/08 06:49:41;;;;;;;4.13;2.17;;;17.10;99.90;;;;;;5089004;28;20191;-84
2021/08/08 06:52:07;;;;;;;2.03;1.77;;;17.30;99.90;;;;;;5072063;28;20159;-84
2021/08/08 06:54:33;;;;;;;6.27;2.70;;;17.10;99.90;;;;;;5073420;28;20171;-84
2021/08/08 06:56:58;;;;;;;1.90;1.77;;;17.10;99.90;;;;;;5090622;28;20159;-84
2021/08/08 06:59:29;;;;;;;1.90;1.70;;;17.30;99.90;;;;;;5090685;28;20219;-84
2021/08/08 07:01:55;;;;;;;1.80;1.67;;;17.20;99.90;;;;;;5093990;28;20147;-81
2021/08/08 07:04:21;;;;;;;6.10;2.00;;;17.40;99.90;;;;;;5089625;28;20417;-84
2021/08/08 07:06:46;;;;;;;2.07;1.87;;;17.60;99.90;;;;;;5087939;28;20167;-84
2021/08/08 07:09:12;;;;;;;8.87;1.90;;;17.70;99.90;;;;;;5089075;28;20271;-84
2021/08/08 07:11:37;;;;;;;2.10;1.90;;;17.90;99.90;;;;;;5071636;28;20234;-84
2021/08/08 07:14:03;;;;;;;1.60;1.50;;;17.70;99.90;;;;;;5054208;28;20158;-84
2021/08/08 07:16:29;;;;;;;1.73;1.63;;;17.70;99.90;;;;;;5054318;28;20175;-84
2021/08/08 07:18:54;;;;;;;1.70;1.60;;;17.70;99.90;;;;;;5071093;28;20179;-84
2021/08/08 07:21:20;;;;;;;1.97;1.50;;;17.70;99.90;;;;;;5088429;28;20226;-84
2021/08/08 07:23:45;;;;;;;2.63;1.83;;;17.60;99.90;;;;;;5088658;28;20167;-85
2021/08/08 07:26:11;;;;;;;1.83;1.73;;;17.50;99.90;;;;;;5071626;28;20197;-84
2021/08/08 07:28:36;;;;;;;2.00;1.80;;;17.70;99.90;;;;;;5088507;28;20215;-82
2021/08/08 07:31:02;;;;;;;1.50;1.40;;;17.70;99.90;;;;;;5070456;28;20183;-83
2021/08/08 07:33:27;;;;;;;1.80;1.70;;;17.80;99.90;;;;;;5070948;28;20176;-83
2021/08/08 07:35:53;;;;;;;9.17;1.77;;;18.20;99.90;;;;;;5070485;28;20270;-83
2021/08/08 07:38:26;;;;;;;1.60;1.50;;;18.00;99.90;;;;;;5125447;27;20578;-84
2021/08/08 07:40:51;;;;;;;2.23;1.90;;;18.00;99.90;;;;;;5086463;28;20528;-81
2021/08/08 07:43:17;;;;;;;2.80;2.00;;;18.20;99.90;;;;;;5105008;28;20315;-83
2021/08/08 07:45:42;;;;;;;3.57;1.83;;;18.40;99.90;;;;;;5104454;28;20258;-84
2021/08/08 07:48:08;;;;;;;1.60;1.50;;;18.40;99.90;;;;;;5086684;28;20230;-81
2021/08/08 07:50:33;;;;;;;3.87;1.73;;;18.40;99.90;;;;;;5103688;28;20163;-82
2021/08/08 07:52:59;;;;;;;2.40;1.87;;;18.10;99.90;;;;;;5104389;28;20169;-83
2021/08/08 07:55:25;;;;;;;1.90;1.67;;;18.40;99.90;;;;;;5085730;28;20603;-84
2021/08/08 07:57:51;;;;;;;3.60;2.53;;;18.60;99.90;;;;;;5069319;28;20232;-84
2021/08/08 08:00:17;;;;;;;2.30;2.10;;;18.70;99.90;;;;;;5086397;28;20155;-84
2021/08/08 08:02:42;;;;;;;2.37;1.80;;;18.30;99.90;;;;;;5086867;28;20161;-83
2021/08/08 08:05:08;;;;;;;2.03;1.50;;;18.40;99.90;;;;;;5068994;28;20401;-84
2021/08/08 08:07:34;;;;;;;2.30;1.70;;;18.80;99.90;;;;;;5104321;28;20169;-84
2021/08/08 08:09:59;;;;;;;7.33;2.07;;;18.70;99.90;;;;;;5022105;28;20216;-84
2021/08/08 08:12:25;;;;;;;7.33;1.97;;;18.90;99.90;;;;;;4988963;28;20664;-84
2021/08/08 08:14:50;;;;;;;1.73;1.63;;;19.20;99.90;;;;;;5020851;28;20210;-84
2021/08/08 08:17:17;;;;;;;1.50;1.40;;;19.10;99.90;;;;;;5005379;28;20281;-83
2021/08/08 08:19:42;;;;;;;3.70;2.07;;;19.30;99.90;;;;;;5021134;28;20416;-84
2021/08/08 08:22:08;;;;;;;1.80;1.70;;;19.30;99.90;;;;;;5022404;28;20273;-84
2021/08/08 08:24:33;;;;;;;2.77;2.07;;;19.30;99.90;;;;;;5021520;28;20296;-84
2021/08/08 08:26:59;;;;;;;1.83;1.57;;;19.30;99.90;;;;;;5022403;28;20201;-80
2021/08/08 08:29:24;;;;;;;5.20;2.20;;;19.20;99.90;;;;;;5027370;28;20275;-83
2021/08/08 08:31:49;;;;;;;1.83;1.73;;;19.50;99.90;;;;;;5026089;28;20158;-83
2021/08/08 08:34:15;;;;;;;2.37;2.23;;;19.60;99.90;;;;;;5006754;28;20252;-83
2021/08/08 08:36:41;;;;;;;3.67;1.50;;;19.90;99.90;;;;;;5027220;28;20260;-83
2021/08/08 08:39:06;;;;;;;2.10;1.80;;;20.00;99.90;;;;;;5041666;28;20252;-82
2021/08/08 08:41:35;;;;;;;2.03;1.83;;;19.80;99.90;;;;;;5055360;28;20189;-85
2021/08/08 08:44:01;;;;;;;1.87;1.77;;;19.70;99.90;;;;;;5065524;28;20187;-84
2021/08/08 08:46:28;;;;;;;1.93;1.80;;;19.90;99.90;;;;;;5080719;28;20413;-84
2021/08/08 08:48:55;;;;;;;2.13;2.03;;;19.70;99.90;;;;;;5072586;28;20402;-84
2021/08/08 08:51:35;;;;;;;4.70;3.73;;;19.80;99.90;;;;;;5067542;28;20409;-84
2021/08/08 08:54:00;;;;;;;2.60;1.67;;;19.90;99.90;;;;;;5034570;28;20411;-84
2021/08/08 08:56:28;;;;;;;2.43;2.00;;;19.60;99.90;;;;;;5069191;28;20532;-84
2021/08/08 08:58:54;;;;;;;2.47;2.30;;;19.80;99.90;;;;;;5070571;28;20171;-84
2021/08/08 09:01:21;;;;;;;4.60;1.77;;;19.90;99.90;;;;;;5068357;28;20418;-85
2021/08/08 09:03:47;;;;;;;2.70;2.00;;;20.20;99.90;;;;;;5070239;28;20170;-84
2021/08/08 09:06:13;;;;;;;2.90;2.27;;;20.30;99.90;;;;;;5070925;28;20430;-84
2021/08/08 09:08:39;;;;;;;2.97;2.10;;;20.30;99.90;;;;;;5072254;28;20434;-82
2021/08/08 09:11:07;;;;;;;2.60;2.03;;;20.30;99.90;;;;;;5076240;28;20387;-82
2021/08/08 09:13:55;;;;;;;2.10;2.00;;;20.50;99.90;;;;;;5068426;28;20422;-83
2021/08/08 09:16:24;;;;;;;3.53;1.80;;;20.20;99.90;;;;;;5068730;28;20462;-83
2021/08/08 09:18:51;;;;;;;2.70;1.73;;;20.20;99.90;;;;;;5068283;28;20402;-84
2021/08/08 09:21:18;;;;;;;1.93;1.70;;;20.20;99.90;;;;;;5068776;28;20399;-82
2021/08/08 09:23:43;;;;;;;3.40;2.03;;;20.40;99.90;;;;;;5069724;28;20402;-84
2021/08/08 09:26:09;;;;;;;1.60;1.50;;;20.30;99.90;;;;;;5067920;28;20403;-84
2021/08/08 09:28:35;;;;;;;2.20;2.00;;;20.20;99.90;;;;;;5067476;28;20531;-82
2021/08/08 09:31:01;;;;;;;3.03;1.60;;;20.30;99.90;;;;;;5070149;28;20156;-84
2021/08/08 09:33:27;;;;;;;2.13;1.80;;;20.40;99.90;;;;;;5069341;28;20157;-84
2021/08/08 09:35:54;;;;;;;2.27;2.07;;;20.50;99.90;;;;;;5069339;28;20398;-82
2021/08/08 09:38:22;;;;;;;2.90;1.90;;;20.50;99.90;;;;;;5068145;28;20482;-84
2021/08/08 09:40:58;;;;;;;1.70;1.60;;;20.60;99.90;;;;;;5067545;28;20409;-83
2021/08/08 09:43:26;;;;;;;3.60;1.90;;;20.80;99.90;;;;;;5069369;28;20398;-84
2021/08/08 09:45:52;;;;;;;1.77;1.67;;;20.80;99.90;;;;;;5068456;28;20399;-83
2021/08/08 09:48:17;;;;;;;2.50;1.93;;;21.10;99.90;;;;;;5069518;28;20403;-83
2021/08/08 09:50:46;;;;;;;2.27;1.70;;;21.50;99.90;;;;;;5067136;28;20172;-84
2021/08/08 09:53:20;;;;;;;2.50;1.50;;;21.30;99.90;;;;;;5067744;28;20252;-84
2021/08/08 09:55:46;;;;;;;1.80;1.70;;;21.20;99.90;;;;;;5066540;28;20394;-84
2021/08/08 09:58:21;;;;;;;3.27;1.97;;;20.80;99.90;;;;;;5066175;28;20536;-83
2021/08/08 10:00:48;;;;;;;2.90;1.70;;;21.30;99.90;;;;;;5066001;28;20398;-82
2021/08/08 10:03:15;;;;;;;1.70;1.53;;;21.60;99.90;;;;;;5064783;28;20432;-82
2021/08/08 10:05:43;;;;;;;4.33;1.90;;;21.60;99.90;;;;;;5065765;28;20551;-84
2021/08/08 10:08:12;;;;;;;2.97;1.90;;;22.00;99.90;;;;;;5065966;28;20523;-83
2021/08/08 10:10:40;;;;;;;1.83;1.73;;;22.10;99.90;;;;;;5067015;28;20487;-84
2021/08/08 10:13:33;;;;;;;3.00;1.53;;;22.00;99.90;;;;;;5068474;28;20456;-84
2021/08/08 10:16:00;;;;;;;3.00;1.80;;;22.30;99.90;;;;;;5053849;28;20403;-83
2021/08/08 10:18:38;;;;;;;6.57;2.70;;;22.40;99.90;;;;;;5067831;28;20407;-84
2021/08/08 10:21:05;;;;;;;2.70;1.83;;;22.60;99.90;;;;;;5049716;28;20448;-83
2021/08/08 10:23:33;;;;;;;5.20;1.80;;;21.80;99.90;;;;;;5066351;28;20485;-83
2021/08/08 10:25:59;;;;;;;2.90;1.80;;;22.30;99.90;;;;;;5066995;28;20383;-84
2021/08/08 10:28:25;;;;;;;1.73;1.30;;;22.10;99.90;;;;;;5066400;28;20512;-84
2021/08/08 10:30:51;;;;;;;2.33;1.40;;;21.30;99.90;;;;;;5068406;28;20171;-84
2021/08/08 10:33:17;;;;;;;2.47;1.70;;;21.40;99.90;;;;;;5048740;28;20402;-84
2021/08/08 10:35:47;;;;;;;2.23;1.60;;;22.00;99.90;;;;;;5066771;28;20409;-84
2021/08/08 10:38:14;;;;;;;1.50;1.40;;;21.80;99.90;;;;;;5066055;28;20306;-82
2021/08/08 10:40:41;;;;;;;4.10;2.10;;;22.10;99.90;;;;;;5066682;28;20402;-84
2021/08/08 10:43:09;;;;;;;4.47;2.53;;;22.50;99.90;;;;;;5068668;28;20406;-84
2021/08/08 10:45:36;;;;;;;1.67;1.33;;;22.50;99.90;;;;;;5072319;28;20467;-84
2021/08/08 10:48:06;;;;;;;3.43;2.33;;;22.60;99.90;;;;;;5069577;28;20403;-84
2021/08/08 10:50:53;;;;;;;3.70;1.80;;;23.10;99.90;;;;;;5067716;28;20474;-84
2021/08/08 10:53:22;;;;;;;4.57;1.73;;;23.40;99.90;;;;;;5032638;28;20434;-84
2021/08/08 10:55:49;;;;;;;1.60;1.43;;;22.50;99.90;;;;;;5066328;28;20399;-84
2021/08/08 10:58:15;;;;;;;3.07;1.90;;;22.60;99.90;;;;;;5066793;28;20515;-83
2021/08/08 11:00:42;;;;;;;3.33;2.17;;;23.00;99.90;;;;;;5066369;28;20411;-83
2021/08/08 11:03:10;;;;;;;2.33;1.90;;;23.30;99.90;;;;;;5068150;28;20172;-84
2021/08/08 11:05:36;;;;;;;2.40;1.60;;;23.00;99.90;;;;;;5067637;28;20489;-83
2021/08/08 11:08:02;;;;;;;1.63;1.30;;;23.60;99.90;;;;;;5066490;28;20503;-84
2021/08/08 11:10:30;;;;;;;1.70;1.60;;;24.00;99.90;;;;;;5069231;28;20168;-85
2021/08/08 11:12:56;;;;;;;3.00;1.80;;;24.10;99.90;;;;;;5067103;28;20395;-85
2021/08/08 11:15:37;;;;;;;1.43;1.33;;;23.80;99.90;;;;;;4989664;28;20945;-84
2021/08/08 11:18:02;;;;;;;5.00;1.80;;;23.80;99.90;;;;;;4989732;28;20483;-84
2021/08/08 11:20:29;;;;;;;2.53;1.87;;;23.70;99.90;;;;;;4973203;28;20421;-84
2021/08/08 11:22:57;;;;;;;3.13;2.17;;;22.70;99.90;;;;;;5005428;28;20172;-84
2021/08/08 11:25:23;;;;;;;3.43;1.87;;;23.30;99.90;;;;;;5005414;28;20458;-85
2021/08/08 11:27:54;;;;;;;2.70;1.87;;;23.40;99.90;;;;;;4989106;28;20412;-84
2021/08/08 11:30:20;;;;;;;6.00;1.90;;;22.90;99.90;;;;;;5005628;28;20417;-84
2021/08/08 11:32:49;;;;;;;2.70;1.90;;;22.90;99.90;;;;;;4988692;28;20448;-84
2021/08/08 11:35:17;;;;;;;2.80;1.60;;;22.30;99.90;;;;;;4990059;28;20429;-84
2021/08/08 11:38:05;;;;;;;1.50;1.40;;;22.60;99.90;;;;;;5006030;28;20552;-84
2021/08/08 11:40:31;;;;;;;2.03;1.83;;;23.30;99.90;;;;;;4966626;29;20474;-84
2021/08/08 11:43:01;;;;;;;1.80;1.70;;;23.90;99.90;;;;;;4935318;29;20411;-83
2021/08/08 11:45:37;;;;;;;2.63;2.13;;;24.30;99.90;;;;;;4960319;28;20450;-84
2021/08/08 11:48:04;;;;;;;3.40;2.00;;;24.60;99.90;;;;;;5044050;28;20830;-84
2021/08/08 11:50:30;;;;;;;3.43;2.27;;;24.20;99.90;;;;;;5044292;28;20434;-85
2021/08/08 11:52:57;;;;;;;3.53;1.90;;;24.30;99.90;;;;;;5027343;28;20403;-84
2021/08/08 11:55:22;;;;;;;1.70;1.60;;;24.30;99.90;;;;;;5027167;28;20192;-84
2021/08/08 11:57:48;;;;;;;3.27;1.80;;;24.30;99.90;;;;;;5010079;28;20820;-84
2021/08/08 12:00:14;;;;;;;2.50;1.70;;;23.20;99.90;;;;;;5026310;28;20184;-83
2021/08/08 12:02:39;;;;;;;2.23;1.60;;;23.20;99.90;;;;;;5044244;28;20267;-83
2021/08/08 12:05:06;;;;;;;1.57;1.47;;;23.20;99.90;;;;;;5028135;28;20407;-84
2021/08/08 12:07:32;;;;;;;4.13;2.07;;;23.00;99.90;;;;;;5045162;28;20602;-84
2021/08/08 12:09:59;;;;;;;3.83;2.10;;;23.00;99.90;;;;;;5044879;28;20414;-84
2021/08/08 12:12:34;;;;;;;2.30;2.17;;;22.90;99.90;;;;;;5061506;28;20418;-85
2021/08/08 12:14:59;;;;;;;2.27;2.07;;;22.90;99.90;;;;;;5067205;28;20433;-84
2021/08/08 12:17:25;;;;;;;4.60;2.40;;;23.00;99.90;;;;;;5064415;28;20450;-84
2021/08/08 12:19:54;;;;;;;2.03;1.90;;;24.00;99.90;;;;;;5064611;28;20160;-84
2021/08/08 12:22:26;;;;;;;4.20;2.13;;;24.30;99.90;;;;;;5066283;28;20156;-84
2021/08/08 12:25:07;;;;;;;1.80;1.70;;;24.50;99.90;;;;;;5067550;28;20481;-83
2021/08/08 12:27:38;;;;;;;4.00;1.67;;;25.60;99.90;;;;;;5067790;28;20927;-84
2021/08/08 12:30:08;;;;;;;3.40;1.90;;;25.40;99.90;;;;;;5063304;28;20409;-84
2021/08/08 12:32:54;;;;;;;3.43;1.77;;;25.70;99.90;;;;;;5062091;28;20453;-84
2021/08/08 12:35:22;;;;;;;2.00;1.70;;;26.10;99.90;;;;;;5039361;28;20413;-84
2021/08/08 12:37:47;;;;;;;1.87;1.73;;;25.80;99.90;;;;;;5002374;28;20507;-84
2021/08/08 12:40:17;;;;;;;2.37;1.33;;;26.00;99.90;;;;;;5031622;28;20751;-84
2021/08/08 12:42:44;;;;;;;1.90;1.80;;;26.60;99.90;;;;;;5022083;28;20187;-83